sensor_id;sensor_type;location;lat;lon;timestamp;P1;durP1;ratioP1;P2;durP2;ratioP2
25913;SDS011;13718;50.922;5.346;2022-09-03T00:02:08;3.30;;;1.38;;
25913;SDS011;13718;50.922;5.346;2022-09-03T00:04:50;5.78;;;1.30;;
25913;SDS011;13718;50.922;5.346;2022-09-03T00:10:10;2.42;;;1.40;;
25913;SDS011;13718;50.922;5.346;2022-09-03T00:12:42;3.88;;;1.52;;
25913;SDS011;13718;50.922;5.346;2022-09-03T00:15:19;3.90;;;1.55;;
25913;SDS011;13718;50.922;5.346;2022-09-03T00:17:54;2.03;;;1.45;;
25913;SDS011;13718;50.922;5.346;2022-09-03T00:20:35;2.75;;;1.23;;
25913;SDS011;13718;50.922;5.346;2022-09-03T00:23:11;3.03;;;1.42;;
25913;SDS011;13718;50.922;5.346;2022-09-03T00:25:53;7.32;;;1.60;;
25913;SDS011;13718;50.922;5.346;2022-09-03T00:28:27;1.90;;;1.27;;
25913;SDS011;13718;50.922;5.346;2022-09-03T00:31:06;3.70;;;1.60;;
25913;SDS011;13718;50.922;5.346;2022-09-03T00:33:51;6.57;;;1.50;;
25913;SDS011;13718;50.922;5.346;2022-09-03T00:36:24;6.40;;;1.92;;
25913;SDS011;13718;50.922;5.346;2022-09-03T00:38:57;7.28;;;1.40;;
25913;SDS011;13718;50.922;5.346;2022-09-03T00:41:36;4.82;;;1.52;;
25913;SDS011;13718;50.922;5.346;2022-09-03T00:47:11;4.75;;;1.60;;
25913;SDS011;13718;50.922;5.346;2022-09-03T00:49:55;6.03;;;1.80;;
25913;SDS011;13718;50.922;5.346;2022-09-03T01:00:28;6.35;;;1.90;;
25913;SDS011;13718;50.922;5.346;2022-09-03T01:08:24;8.57;;;2.33;;
25913;SDS011;13718;50.922;5.346;2022-09-03T01:14:25;5.90;;;2.40;;
25913;SDS011;13718;50.922;5.346;2022-09-03T01:20:35;6.25;;;2.42;;
25913;SDS011;13718;50.922;5.346;2022-09-03T01:26:02;3.88;;;2.13;;
25913;SDS011;13718;50.922;5.346;2022-09-03T01:31:45;3.90;;;2.15;;
25913;SDS011;13718;50.922;5.346;2022-09-03T01:36:57;3.63;;;1.90;;
25913;SDS011;13718;50.922;5.346;2022-09-03T01:45:21;5.63;;;2.00;;
25913;SDS011;13718;50.922;5.346;2022-09-03T01:49:11;3.97;;;1.95;;
25913;SDS011;13718;50.922;5.346;2022-09-03T01:51:23;6.72;;;1.90;;
25913;SDS011;13718;50.922;5.346;2022-09-03T01:53:59;5.22;;;1.75;;
25913;SDS011;13718;50.922;5.346;2022-09-03T01:59:41;3.38;;;1.95;;
25913;SDS011;13718;50.922;5.346;2022-09-03T02:02:19;4.63;;;1.70;;
25913;SDS011;13718;50.922;5.346;2022-09-03T02:07:31;4.97;;;1.80;;
25913;SDS011;13718;50.922;5.346;2022-09-03T02:10:00;6.60;;;2.08;;
25913;SDS011;13718;50.922;5.346;2022-09-03T02:12:28;4.63;;;2.17;;
25913;SDS011;13718;50.922;5.346;2022-09-03T02:14:58;4.13;;;2.47;;
25913;SDS011;13718;50.922;5.346;2022-09-03T02:17:27;6.95;;;2.35;;
25913;SDS011;13718;50.922;5.346;2022-09-03T02:19:55;3.33;;;1.98;;
25913;SDS011;13718;50.922;5.346;2022-09-03T02:22:22;5.63;;;2.63;;
25913;SDS011;13718;50.922;5.346;2022-09-03T02:24:47;7.78;;;2.30;;
25913;SDS011;13718;50.922;5.346;2022-09-03T02:27:13;3.33;;;2.50;;
25913;SDS011;13718;50.922;5.346;2022-09-03T02:29:40;4.50;;;2.45;;
25913;SDS011;13718;50.922;5.346;2022-09-03T02:32:06;4.70;;;2.53;;
25913;SDS011;13718;50.922;5.346;2022-09-03T02:34:31;3.60;;;2.20;;
25913;SDS011;13718;50.922;5.346;2022-09-03T02:36:57;6.43;;;3.03;;
25913;SDS011;13718;50.922;5.346;2022-09-03T02:39:22;3.40;;;2.40;;
25913;SDS011;13718;50.922;5.346;2022-09-03T02:41:50;3.20;;;2.50;;
25913;SDS011;13718;50.922;5.346;2022-09-03T02:44:23;4.57;;;2.30;;
25913;SDS011;13718;50.922;5.346;2022-09-03T02:46:59;6.63;;;2.47;;
25913;SDS011;13718;50.922;5.346;2022-09-03T02:49:27;4.60;;;2.07;;
25913;SDS011;13718;50.922;5.346;2022-09-03T02:52:01;7.28;;;2.30;;
25913;SDS011;13718;50.922;5.346;2022-09-03T02:54:30;4.88;;;1.90;;
25913;SDS011;13718;50.922;5.346;2022-09-03T02:56:57;4.35;;;2.22;;
25913;SDS011;13718;50.922;5.346;2022-09-03T02:59:23;3.33;;;2.15;;
25913;SDS011;13718;50.922;5.346;2022-09-03T03:01:52;4.28;;;2.33;;
25913;SDS011;13718;50.922;5.346;2022-09-03T03:04:18;9.55;;;2.65;;
25913;SDS011;13718;50.922;5.346;2022-09-03T03:06:44;7.97;;;2.13;;
25913;SDS011;13718;50.922;5.346;2022-09-03T03:09:09;3.25;;;2.10;;
25913;SDS011;13718;50.922;5.346;2022-09-03T03:11:35;4.85;;;2.20;;
25913;SDS011;13718;50.922;5.346;2022-09-03T03:14:00;3.03;;;1.88;;
25913;SDS011;13718;50.922;5.346;2022-09-03T03:16:26;11.75;;;2.17;;
25913;SDS011;13718;50.922;5.346;2022-09-03T03:18:54;6.43;;;1.75;;
25913;SDS011;13718;50.922;5.346;2022-09-03T03:21:20;7.00;;;2.20;;
25913;SDS011;13718;50.922;5.346;2022-09-03T03:23:46;2.38;;;1.85;;
25913;SDS011;13718;50.922;5.346;2022-09-03T03:26:15;18.65;;;3.47;;
25913;SDS011;13718;50.922;5.346;2022-09-03T03:28:45;3.25;;;1.80;;
25913;SDS011;13718;50.922;5.346;2022-09-03T03:31:13;3.25;;;1.80;;
25913;SDS011;13718;50.922;5.346;2022-09-03T03:33:41;3.70;;;1.90;;
25913;SDS011;13718;50.922;5.346;2022-09-03T03:36:07;7.65;;;1.90;;
25913;SDS011;13718;50.922;5.346;2022-09-03T03:38:38;4.40;;;2.38;;
25913;SDS011;13718;50.922;5.346;2022-09-03T03:41:11;7.80;;;2.10;;
25913;SDS011;13718;50.922;5.346;2022-09-03T03:43:39;5.93;;;1.90;;
25913;SDS011;13718;50.922;5.346;2022-09-03T03:46:05;4.07;;;1.90;;
25913;SDS011;13718;50.922;5.346;2022-09-03T03:48:31;4.85;;;1.90;;
25913;SDS011;13718;50.922;5.346;2022-09-03T03:51:04;4.70;;;2.05;;
25913;SDS011;13718;50.922;5.346;2022-09-03T03:53:32;5.07;;;1.83;;
25913;SDS011;13718;50.922;5.346;2022-09-03T03:56:00;5.85;;;1.95;;
25913;SDS011;13718;50.922;5.346;2022-09-03T03:58:28;5.70;;;2.30;;
25913;SDS011;13718;50.922;5.346;2022-09-03T04:00:55;5.05;;;1.80;;
25913;SDS011;13718;50.922;5.346;2022-09-03T04:03:29;3.05;;;1.90;;
25913;SDS011;13718;50.922;5.346;2022-09-03T04:05:55;4.57;;;1.92;;
25913;SDS011;13718;50.922;5.346;2022-09-03T04:08:23;5.88;;;1.95;;
25913;SDS011;13718;50.922;5.346;2022-09-03T04:10:49;3.00;;;1.67;;
25913;SDS011;13718;50.922;5.346;2022-09-03T04:13:15;4.53;;;1.75;;
25913;SDS011;13718;50.922;5.346;2022-09-03T04:15:41;4.45;;;1.90;;
25913;SDS011;13718;50.922;5.346;2022-09-03T04:18:06;5.50;;;1.70;;
25913;SDS011;13718;50.922;5.346;2022-09-03T04:20:32;5.68;;;1.60;;
25913;SDS011;13718;50.922;5.346;2022-09-03T04:23:00;5.03;;;1.77;;
25913;SDS011;13718;50.922;5.346;2022-09-03T04:25:26;3.13;;;1.85;;
25913;SDS011;13718;50.922;5.346;2022-09-03T04:27:52;6.97;;;1.80;;
25913;SDS011;13718;50.922;5.346;2022-09-03T04:30:18;5.53;;;1.70;;
25913;SDS011;13718;50.922;5.346;2022-09-03T04:32:44;4.13;;;1.90;;
25913;SDS011;13718;50.922;5.346;2022-09-03T04:35:19;2.58;;;1.65;;
25913;SDS011;13718;50.922;5.346;2022-09-03T04:37:45;7.90;;;1.90;;
25913;SDS011;13718;50.922;5.346;2022-09-03T04:40:11;5.57;;;1.90;;
25913;SDS011;13718;50.922;5.346;2022-09-03T04:42:37;7.03;;;2.25;;
25913;SDS011;13718;50.922;5.346;2022-09-03T04:45:03;4.40;;;1.63;;
25913;SDS011;13718;50.922;5.346;2022-09-03T04:47:29;4.20;;;1.83;;
25913;SDS011;13718;50.922;5.346;2022-09-03T04:49:55;3.38;;;1.80;;
25913;SDS011;13718;50.922;5.346;2022-09-03T04:52:21;4.85;;;1.90;;
25913;SDS011;13718;50.922;5.346;2022-09-03T04:54:46;5.68;;;1.83;;
25913;SDS011;13718;50.922;5.346;2022-09-03T04:57:12;7.15;;;1.60;;
25913;SDS011;13718;50.922;5.346;2022-09-03T04:59:37;3.22;;;1.73;;
25913;SDS011;13718;50.922;5.346;2022-09-03T05:02:05;2.78;;;1.60;;
25913;SDS011;13718;50.922;5.346;2022-09-03T05:04:30;5.45;;;1.90;;
25913;SDS011;13718;50.922;5.346;2022-09-03T05:06:56;2.72;;;1.52;;
25913;SDS011;13718;50.922;5.346;2022-09-03T05:09:22;4.80;;;2.28;;
25913;SDS011;13718;50.922;5.346;2022-09-03T05:11:47;3.95;;;1.60;;
25913;SDS011;13718;50.922;5.346;2022-09-03T05:14:13;5.13;;;2.08;;
25913;SDS011;13718;50.922;5.346;2022-09-03T05:16:38;4.82;;;2.08;;
25913;SDS011;13718;50.922;5.346;2022-09-03T05:19:04;5.20;;;1.90;;
25913;SDS011;13718;50.922;5.346;2022-09-03T05:21:32;3.33;;;1.88;;
25913;SDS011;13718;50.922;5.346;2022-09-03T05:24:00;5.45;;;2.20;;
25913;SDS011;13718;50.922;5.346;2022-09-03T05:26:27;4.57;;;2.05;;
25913;SDS011;13718;50.922;5.346;2022-09-03T05:28:55;7.45;;;2.17;;
25913;SDS011;13718;50.922;5.346;2022-09-03T05:31:23;10.85;;;2.22;;
25913;SDS011;13718;50.922;5.346;2022-09-03T05:33:51;3.97;;;1.83;;
25913;SDS011;13718;50.922;5.346;2022-09-03T05:36:22;5.55;;;2.38;;
25913;SDS011;13718;50.922;5.346;2022-09-03T05:38:49;3.63;;;2.00;;
25913;SDS011;13718;50.922;5.346;2022-09-03T05:41:18;7.53;;;2.30;;
25913;SDS011;13718;50.922;5.346;2022-09-03T05:43:46;4.53;;;2.28;;
25913;SDS011;13718;50.922;5.346;2022-09-03T05:46:16;3.85;;;2.08;;
25913;SDS011;13718;50.922;5.346;2022-09-03T05:48:42;6.63;;;2.20;;
25913;SDS011;13718;50.922;5.346;2022-09-03T05:53:36;5.53;;;2.22;;
25913;SDS011;13718;50.922;5.346;2022-09-03T05:56:04;8.60;;;2.20;;
25913;SDS011;13718;50.922;5.346;2022-09-03T05:58:44;7.97;;;2.30;;
25913;SDS011;13718;50.922;5.346;2022-09-03T06:01:25;6.68;;;2.20;;
25913;SDS011;13718;50.922;5.346;2022-09-03T06:03:56;8.38;;;2.47;;
25913;SDS011;13718;50.922;5.346;2022-09-03T06:06:22;5.68;;;2.22;;
25913;SDS011;13718;50.922;5.346;2022-09-03T06:08:52;5.35;;;2.30;;
25913;SDS011;13718;50.922;5.346;2022-09-03T06:11:19;9.57;;;2.30;;
25913;SDS011;13718;50.922;5.346;2022-09-03T06:13:45;8.50;;;2.70;;
25913;SDS011;13718;50.922;5.346;2022-09-03T06:16:11;7.70;;;2.53;;
25913;SDS011;13718;50.922;5.346;2022-09-03T06:18:37;6.88;;;2.53;;
25913;SDS011;13718;50.922;5.346;2022-09-03T06:21:04;12.18;;;2.95;;
25913;SDS011;13718;50.922;5.346;2022-09-03T06:23:31;7.78;;;2.60;;
25913;SDS011;13718;50.922;5.346;2022-09-03T06:26:02;9.18;;;2.78;;
25913;SDS011;13718;50.922;5.346;2022-09-03T06:28:33;10.65;;;2.90;;
25913;SDS011;13718;50.922;5.346;2022-09-03T06:31:00;8.57;;;3.03;;
25913;SDS011;13718;50.922;5.346;2022-09-03T06:33:28;12.13;;;3.35;;
25913;SDS011;13718;50.922;5.346;2022-09-03T06:35:55;11.10;;;3.10;;
25913;SDS011;13718;50.922;5.346;2022-09-03T06:38:28;6.72;;;2.63;;
25913;SDS011;13718;50.922;5.346;2022-09-03T06:41:05;6.30;;;2.33;;
25913;SDS011;13718;50.922;5.346;2022-09-03T06:43:36;6.93;;;2.53;;
25913;SDS011;13718;50.922;5.346;2022-09-03T06:46:04;3.35;;;1.92;;
25913;SDS011;13718;50.922;5.346;2022-09-03T06:48:35;6.45;;;1.98;;
25913;SDS011;13718;50.922;5.346;2022-09-03T06:51:05;8.65;;;2.20;;
25913;SDS011;13718;50.922;5.346;2022-09-03T06:53:34;7.00;;;1.85;;
25913;SDS011;13718;50.922;5.346;2022-09-03T06:56:04;7.13;;;1.70;;
25913;SDS011;13718;50.922;5.346;2022-09-03T06:58:35;10.90;;;2.00;;
25913;SDS011;13718;50.922;5.346;2022-09-03T07:03:30;8.02;;;1.77;;
25913;SDS011;13718;50.922;5.346;2022-09-03T07:06:03;6.90;;;1.88;;
25913;SDS011;13718;50.922;5.346;2022-09-03T07:08:33;3.05;;;1.63;;
25913;SDS011;13718;50.922;5.346;2022-09-03T07:11:00;6.35;;;1.70;;
25913;SDS011;13718;50.922;5.346;2022-09-03T07:13:29;5.55;;;1.40;;
25913;SDS011;13718;50.922;5.346;2022-09-03T07:16:05;4.47;;;1.70;;
25913;SDS011;13718;50.922;5.346;2022-09-03T07:18:38;5.78;;;1.50;;
25913;SDS011;13718;50.922;5.346;2022-09-03T07:21:05;4.07;;;1.40;;
25913;SDS011;13718;50.922;5.346;2022-09-03T07:23:32;2.85;;;1.50;;
25913;SDS011;13718;50.922;5.346;2022-09-03T07:26:00;4.10;;;1.92;;
25913;SDS011;13718;50.922;5.346;2022-09-03T07:28:27;3.78;;;1.30;;
25913;SDS011;13718;50.922;5.346;2022-09-03T07:30:55;3.47;;;1.45;;
25913;SDS011;13718;50.922;5.346;2022-09-03T07:33:29;4.70;;;1.58;;
25913;SDS011;13718;50.922;5.346;2022-09-03T07:35:55;7.10;;;1.45;;
25913;SDS011;13718;50.922;5.346;2022-09-03T07:38:27;4.57;;;1.30;;
25913;SDS011;13718;50.922;5.346;2022-09-03T07:40:59;3.75;;;1.42;;
25913;SDS011;13718;50.922;5.346;2022-09-03T07:43:26;3.05;;;1.08;;
25913;SDS011;13718;50.922;5.346;2022-09-03T07:45:53;2.50;;;1.20;;
25913;SDS011;13718;50.922;5.346;2022-09-03T07:48:21;4.75;;;1.70;;
25913;SDS011;13718;50.922;5.346;2022-09-03T07:50:47;3.97;;;1.65;;
25913;SDS011;13718;50.922;5.346;2022-09-03T07:53:15;8.65;;;1.48;;
25913;SDS011;13718;50.922;5.346;2022-09-03T07:55:42;4.57;;;1.50;;
25913;SDS011;13718;50.922;5.346;2022-09-03T07:58:10;5.88;;;1.67;;
25913;SDS011;13718;50.922;5.346;2022-09-03T08:00:37;6.68;;;1.48;;
25913;SDS011;13718;50.922;5.346;2022-09-03T08:03:03;5.60;;;1.48;;
25913;SDS011;13718;50.922;5.346;2022-09-03T08:05:32;2.33;;;1.40;;
25913;SDS011;13718;50.922;5.346;2022-09-03T08:08:00;2.30;;;1.60;;
25913;SDS011;13718;50.922;5.346;2022-09-03T08:10:29;3.85;;;1.60;;
25913;SDS011;13718;50.922;5.346;2022-09-03T08:12:58;3.78;;;1.73;;
25913;SDS011;13718;50.922;5.346;2022-09-03T08:15:24;4.65;;;1.80;;
25913;SDS011;13718;50.922;5.346;2022-09-03T08:17:50;6.22;;;1.70;;
25913;SDS011;13718;50.922;5.346;2022-09-03T08:20:16;3.88;;;1.40;;
25913;SDS011;13718;50.922;5.346;2022-09-03T08:22:42;5.95;;;1.63;;
25913;SDS011;13718;50.922;5.346;2022-09-03T08:25:08;3.80;;;1.60;;
25913;SDS011;13718;50.922;5.346;2022-09-03T08:27:34;4.80;;;1.73;;
25913;SDS011;13718;50.922;5.346;2022-09-03T08:29:59;3.67;;;2.17;;
25913;SDS011;13718;50.922;5.346;2022-09-03T08:32:25;7.18;;;2.00;;
25913;SDS011;13718;50.922;5.346;2022-09-03T08:34:51;5.90;;;1.70;;
25913;SDS011;13718;50.922;5.346;2022-09-03T08:37:17;4.65;;;1.90;;
25913;SDS011;13718;50.922;5.346;2022-09-03T08:39:43;4.63;;;1.80;;
25913;SDS011;13718;50.922;5.346;2022-09-03T08:42:30;4.18;;;1.50;;
25913;SDS011;13718;50.922;5.346;2022-09-03T08:44:58;4.03;;;1.60;;
25913;SDS011;13718;50.922;5.346;2022-09-03T08:47:33;4.45;;;1.73;;
25913;SDS011;13718;50.922;5.346;2022-09-03T08:50:15;4.70;;;1.75;;
25913;SDS011;13718;50.922;5.346;2022-09-03T08:52:50;4.57;;;1.75;;
25913;SDS011;13718;50.922;5.346;2022-09-03T08:58:18;6.63;;;1.80;;
25913;SDS011;13718;50.922;5.346;2022-09-03T09:08:30;7.13;;;2.03;;
25913;SDS011;13718;50.922;5.346;2022-09-03T09:13:58;2.90;;;1.50;;
25913;SDS011;13718;50.922;5.346;2022-09-03T09:16:49;5.45;;;1.67;;
25913;SDS011;13718;50.922;5.346;2022-09-03T09:22:20;1.98;;;1.63;;
25913;SDS011;13718;50.922;5.346;2022-09-03T09:24:52;3.45;;;1.67;;
25913;SDS011;13718;50.922;5.346;2022-09-03T09:27:22;3.75;;;1.60;;
25913;SDS011;13718;50.922;5.346;2022-09-03T09:29:49;3.63;;;1.48;;
25913;SDS011;13718;50.922;5.346;2022-09-03T09:32:15;3.10;;;1.98;;
25913;SDS011;13718;50.922;5.346;2022-09-03T09:34:43;3.03;;;1.83;;
25913;SDS011;13718;50.922;5.346;2022-09-03T09:37:10;4.57;;;1.80;;
25913;SDS011;13718;50.922;5.346;2022-09-03T09:39:38;5.38;;;1.90;;
25913;SDS011;13718;50.922;5.346;2022-09-03T09:44:33;2.75;;;1.90;;
25913;SDS011;13718;50.922;5.346;2022-09-03T09:47:05;4.22;;;2.08;;
25913;SDS011;13718;50.922;5.346;2022-09-03T09:52:19;5.50;;;2.00;;
25913;SDS011;13718;50.922;5.346;2022-09-03T09:54:49;2.40;;;1.88;;
25913;SDS011;13718;50.922;5.346;2022-09-03T09:57:20;2.60;;;1.70;;
25913;SDS011;13718;50.922;5.346;2022-09-03T09:59:47;4.17;;;2.00;;
25913;SDS011;13718;50.922;5.346;2022-09-03T10:04:45;3.88;;;1.70;;
25913;SDS011;13718;50.922;5.346;2022-09-03T10:10:03;25.35;;;2.45;;
25913;SDS011;13718;50.922;5.346;2022-09-03T10:17:52;5.25;;;2.00;;
25913;SDS011;13718;50.922;5.346;2022-09-03T10:20:33;5.43;;;2.15;;
25913;SDS011;13718;50.922;5.346;2022-09-03T10:23:16;5.90;;;2.05;;
25913;SDS011;13718;50.922;5.346;2022-09-03T10:28:51;4.35;;;1.90;;
25913;SDS011;13718;50.922;5.346;2022-09-03T10:39:21;2.90;;;1.90;;
25913;SDS011;13718;50.922;5.346;2022-09-03T10:42:12;4.30;;;2.28;;
25913;SDS011;13718;50.922;5.346;2022-09-03T10:47:56;4.63;;;2.10;;
25913;SDS011;13718;50.922;5.346;2022-09-03T10:50:47;4.35;;;2.20;;
25913;SDS011;13718;50.922;5.346;2022-09-03T10:53:25;3.60;;;2.13;;
25913;SDS011;13718;50.922;5.346;2022-09-03T10:56:04;4.47;;;2.13;;
25913;SDS011;13718;50.922;5.346;2022-09-03T11:04:43;2.13;;;1.65;;
25913;SDS011;13718;50.922;5.346;2022-09-03T11:07:15;3.15;;;1.80;;
25913;SDS011;13718;50.922;5.346;2022-09-03T11:09:56;6.30;;;2.25;;
25913;SDS011;13718;50.922;5.346;2022-09-03T11:12:31;4.57;;;2.35;;
25913;SDS011;13718;50.922;5.346;2022-09-03T11:15:14;4.45;;;2.20;;
25913;SDS011;13718;50.922;5.346;2022-09-03T11:17:52;2.83;;;2.00;;
25913;SDS011;13718;50.922;5.346;2022-09-03T11:20:37;3.53;;;2.00;;
25913;SDS011;13718;50.922;5.346;2022-09-03T11:23:04;4.07;;;2.15;;
25913;SDS011;13718;50.922;5.346;2022-09-03T11:25:36;3.53;;;2.00;;
25913;SDS011;13718;50.922;5.346;2022-09-03T11:36:49;2.87;;;2.27;;
25913;SDS011;13718;50.922;5.346;2022-09-03T11:39:19;2.95;;;1.65;;
25913;SDS011;13718;50.922;5.346;2022-09-03T11:41:57;2.33;;;1.80;;
25913;SDS011;13718;50.922;5.346;2022-09-03T11:44:38;4.60;;;2.35;;
25913;SDS011;13718;50.922;5.346;2022-09-03T11:47:13;5.05;;;2.22;;
25913;SDS011;13718;50.922;5.346;2022-09-03T11:49:43;4.68;;;2.20;;
25913;SDS011;13718;50.922;5.346;2022-09-03T11:52:23;8.52;;;2.47;;
25913;SDS011;13718;50.922;5.346;2022-09-03T11:54:54;5.50;;;2.80;;
25913;SDS011;13718;50.922;5.346;2022-09-03T11:59:53;5.55;;;2.55;;
25913;SDS011;13718;50.922;5.346;2022-09-03T12:02:31;3.83;;;2.28;;
25913;SDS011;13718;50.922;5.346;2022-09-03T12:08:35;3.85;;;2.30;;
25913;SDS011;13718;50.922;5.346;2022-09-03T12:18:46;5.28;;;2.42;;
25913;SDS011;13718;50.922;5.346;2022-09-03T12:21:16;3.95;;;2.20;;
25913;SDS011;13718;50.922;5.346;2022-09-03T12:23:43;5.30;;;2.17;;
25913;SDS011;13718;50.922;5.346;2022-09-03T12:26:16;4.22;;;2.03;;
25913;SDS011;13718;50.922;5.346;2022-09-03T12:28:50;2.97;;;2.20;;
25913;SDS011;13718;50.922;5.346;2022-09-03T12:31:24;5.45;;;2.33;;
25913;SDS011;13718;50.922;5.346;2022-09-03T12:36:37;3.25;;;2.22;;
25913;SDS011;13718;50.922;5.346;2022-09-03T12:39:08;11.90;;;2.42;;
25913;SDS011;13718;50.922;5.346;2022-09-03T12:41:51;13.93;;;2.58;;
25913;SDS011;13718;50.922;5.346;2022-09-03T12:49:36;5.18;;;2.10;;
25913;SDS011;13718;50.922;5.346;2022-09-03T12:54:41;3.42;;;2.33;;
25913;SDS011;13718;50.922;5.346;2022-09-03T12:57:21;2.65;;;1.70;;
25913;SDS011;13718;50.922;5.346;2022-09-03T12:59:52;4.90;;;2.50;;
25913;SDS011;13718;50.922;5.346;2022-09-03T13:02:27;6.50;;;2.10;;
25913;SDS011;13718;50.922;5.346;2022-09-03T13:05:08;2.65;;;2.03;;
25913;SDS011;13718;50.922;5.346;2022-09-03T13:07:42;2.72;;;2.10;;
25913;SDS011;13718;50.922;5.346;2022-09-03T13:10:32;3.28;;;1.63;;
25913;SDS011;13718;50.922;5.346;2022-09-03T13:13:16;1.80;;;1.60;;
25913;SDS011;13718;50.922;5.346;2022-09-03T13:15:59;3.15;;;1.83;;
25913;SDS011;13718;50.922;5.346;2022-09-03T13:35:08;3.50;;;2.03;;
25913;SDS011;13718;50.922;5.346;2022-09-03T13:43:31;4.75;;;1.77;;
25913;SDS011;13718;50.922;5.346;2022-09-03T13:48:43;3.22;;;1.80;;
25913;SDS011;13718;50.922;5.346;2022-09-03T13:51:36;4.00;;;1.90;;
25913;SDS011;13718;50.922;5.346;2022-09-03T14:04:40;5.13;;;1.73;;
25913;SDS011;13718;50.922;5.346;2022-09-03T14:07:30;3.05;;;2.10;;
25913;SDS011;13718;50.922;5.346;2022-09-03T14:12:48;4.00;;;2.10;;
25913;SDS011;13718;50.922;5.346;2022-09-03T14:15:31;3.80;;;2.08;;
25913;SDS011;13718;50.922;5.346;2022-09-03T14:21:03;3.22;;;2.15;;
25913;SDS011;13718;50.922;5.346;2022-09-03T14:23:39;4.18;;;2.30;;
25913;SDS011;13718;50.922;5.346;2022-09-03T14:28:40;4.72;;;2.35;;
25913;SDS011;13718;50.922;5.346;2022-09-03T14:33:49;4.47;;;2.58;;
25913;SDS011;13718;50.922;5.346;2022-09-03T14:44:44;6.28;;;2.40;;
25913;SDS011;13718;50.922;5.346;2022-09-03T15:05:04;4.70;;;2.65;;
25913;SDS011;13718;50.922;5.346;2022-09-03T15:07:41;7.15;;;2.75;;
25913;SDS011;13718;50.922;5.346;2022-09-03T15:13:20;3.90;;;2.30;;
25913;SDS011;13718;50.922;5.346;2022-09-03T15:18:46;3.92;;;2.10;;
25913;SDS011;13718;50.922;5.346;2022-09-03T15:24:19;5.97;;;2.28;;
25913;SDS011;13718;50.922;5.346;2022-09-03T15:27:33;5.53;;;2.30;;
25913;SDS011;13718;50.922;5.346;2022-09-03T15:30:19;4.43;;;2.50;;
25913;SDS011;13718;50.922;5.346;2022-09-03T15:40:50;4.90;;;2.60;;
25913;SDS011;13718;50.922;5.346;2022-09-03T15:43:21;7.10;;;2.80;;
25913;SDS011;13718;50.922;5.346;2022-09-03T15:45:54;4.75;;;2.55;;
25913;SDS011;13718;50.922;5.346;2022-09-03T15:48:33;6.18;;;2.42;;
25913;SDS011;13718;50.922;5.346;2022-09-03T15:51:32;6.05;;;2.35;;
25913;SDS011;13718;50.922;5.346;2022-09-03T15:54:15;5.20;;;2.00;;
25913;SDS011;13718;50.922;5.346;2022-09-03T16:02:37;5.70;;;2.40;;
25913;SDS011;13718;50.922;5.346;2022-09-03T16:07:52;3.63;;;2.22;;
25913;SDS011;13718;50.922;5.346;2022-09-03T16:16:07;4.30;;;2.33;;
25913;SDS011;13718;50.922;5.346;2022-09-03T16:18:39;3.78;;;2.05;;
25913;SDS011;13718;50.922;5.346;2022-09-03T16:21:25;4.30;;;2.53;;
25913;SDS011;13718;50.922;5.346;2022-09-03T16:24:04;8.35;;;2.28;;
25913;SDS011;13718;50.922;5.346;2022-09-03T16:26:47;6.28;;;2.80;;
25913;SDS011;13718;50.922;5.346;2022-09-03T16:29:23;5.78;;;2.40;;
25913;SDS011;13718;50.922;5.346;2022-09-03T16:40:44;3.83;;;2.30;;
25913;SDS011;13718;50.922;5.346;2022-09-03T16:43:20;3.45;;;1.85;;
25913;SDS011;13718;50.922;5.346;2022-09-03T16:46:13;2.88;;;1.92;;
25913;SDS011;13718;50.922;5.346;2022-09-03T16:51:53;5.18;;;2.17;;
25913;SDS011;13718;50.922;5.346;2022-09-03T17:00:09;6.50;;;2.10;;
25913;SDS011;13718;50.922;5.346;2022-09-03T17:08:26;2.63;;;1.80;;
25913;SDS011;13718;50.922;5.346;2022-09-03T17:19:45;4.97;;;2.20;;
25913;SDS011;13718;50.922;5.346;2022-09-03T17:22:44;6.93;;;2.15;;
25913;SDS011;13718;50.922;5.346;2022-09-03T17:30:56;3.28;;;2.08;;
25913;SDS011;13718;50.922;5.346;2022-09-03T17:36:26;2.05;;;1.85;;
25913;SDS011;13718;50.922;5.346;2022-09-03T17:41:46;3.17;;;2.20;;
25913;SDS011;13718;50.922;5.346;2022-09-03T17:49:46;4.63;;;2.38;;
25913;SDS011;13718;50.922;5.346;2022-09-03T17:52:27;3.78;;;2.15;;
25913;SDS011;13718;50.922;5.346;2022-09-03T17:55:12;8.48;;;2.40;;
25913;SDS011;13718;50.922;5.346;2022-09-03T17:57:59;3.92;;;2.17;;
25913;SDS011;13718;50.922;5.346;2022-09-03T18:00:31;5.35;;;2.30;;
25913;SDS011;13718;50.922;5.346;2022-09-03T18:03:38;4.47;;;2.42;;
25913;SDS011;13718;50.922;5.346;2022-09-03T18:11:55;5.32;;;2.22;;
25913;SDS011;13718;50.922;5.346;2022-09-03T18:14:42;5.10;;;3.40;;
25913;SDS011;13718;50.922;5.346;2022-09-03T18:17:36;4.13;;;2.28;;
25913;SDS011;13718;50.922;5.346;2022-09-03T18:20:17;5.53;;;2.13;;
25913;SDS011;13718;50.922;5.346;2022-09-03T18:26:10;5.03;;;2.13;;
25913;SDS011;13718;50.922;5.346;2022-09-03T18:29:00;3.20;;;2.30;;
25913;SDS011;13718;50.922;5.346;2022-09-03T18:31:47;3.67;;;2.28;;
25913;SDS011;13718;50.922;5.346;2022-09-03T18:34:33;5.32;;;2.50;;
25913;SDS011;13718;50.922;5.346;2022-09-03T18:37:23;5.38;;;2.88;;
25913;SDS011;13718;50.922;5.346;2022-09-03T18:40:15;6.22;;;2.83;;
25913;SDS011;13718;50.922;5.346;2022-09-03T18:43:08;3.83;;;2.40;;
25913;SDS011;13718;50.922;5.346;2022-09-03T18:46:09;6.17;;;2.77;;
25913;SDS011;13718;50.922;5.346;2022-09-03T18:52:11;7.15;;;2.83;;
25913;SDS011;13718;50.922;5.346;2022-09-03T18:58:08;7.50;;;3.10;;
25913;SDS011;13718;50.922;5.346;2022-09-03T19:01:10;3.47;;;2.50;;
25913;SDS011;13718;50.922;5.346;2022-09-03T19:04:14;3.80;;;2.65;;
25913;SDS011;13718;50.922;5.346;2022-09-03T19:07:08;5.50;;;3.17;;
25913;SDS011;13718;50.922;5.346;2022-09-03T19:13:04;3.72;;;2.83;;
25913;SDS011;13718;50.922;5.346;2022-09-03T19:22:09;7.63;;;2.88;;
25913;SDS011;13718;50.922;5.346;2022-09-03T19:24:57;6.47;;;2.38;;
25913;SDS011;13718;50.922;5.346;2022-09-03T19:36:43;6.88;;;2.60;;
25913;SDS011;13718;50.922;5.346;2022-09-03T19:43:04;5.35;;;2.80;;
25913;SDS011;13718;50.922;5.346;2022-09-03T19:54:54;5.03;;;2.47;;
25913;SDS011;13718;50.922;5.346;2022-09-03T19:57:40;6.90;;;2.67;;
25913;SDS011;13718;50.922;5.346;2022-09-03T20:00:26;4.55;;;2.20;;
25913;SDS011;13718;50.922;5.346;2022-09-03T20:03:12;5.28;;;2.42;;
25913;SDS011;13718;50.922;5.346;2022-09-03T20:05:57;4.40;;;2.20;;
25913;SDS011;13718;50.922;5.346;2022-09-03T20:08:44;4.93;;;1.90;;
25913;SDS011;13718;50.922;5.346;2022-09-03T20:11:30;3.65;;;1.85;;
25913;SDS011;13718;50.922;5.346;2022-09-03T20:13:57;4.30;;;2.05;;
25913;SDS011;13718;50.922;5.346;2022-09-03T20:22:24;4.85;;;2.10;;
25913;SDS011;13718;50.922;5.346;2022-09-03T20:30:19;5.30;;;1.85;;
25913;SDS011;13718;50.922;5.346;2022-09-03T20:40:44;3.20;;;1.60;;
25913;SDS011;13718;50.922;5.346;2022-09-03T20:46:38;3.85;;;2.50;;
25913;SDS011;13718;50.922;5.346;2022-09-03T20:52:12;4.85;;;2.25;;
25913;SDS011;13718;50.922;5.346;2022-09-03T20:55:04;5.15;;;2.55;;
25913;SDS011;13718;50.922;5.346;2022-09-03T21:00:23;5.32;;;2.58;;
25913;SDS011;13718;50.922;5.346;2022-09-03T21:11:03;8.63;;;2.80;;
25913;SDS011;13718;50.922;5.346;2022-09-03T21:14:06;6.25;;;2.35;;
25913;SDS011;13718;50.922;5.346;2022-09-03T21:24:59;4.40;;;2.85;;
25913;SDS011;13718;50.922;5.346;2022-09-03T21:27:31;5.07;;;2.88;;
25913;SDS011;13718;50.922;5.346;2022-09-03T21:30:03;4.88;;;3.22;;
25913;SDS011;13718;50.922;5.346;2022-09-03T21:37:54;6.45;;;3.47;;
25913;SDS011;13718;50.922;5.346;2022-09-03T21:40:25;6.05;;;2.92;;
25913;SDS011;13718;50.922;5.346;2022-09-03T21:43:07;4.78;;;2.90;;
25913;SDS011;13718;50.922;5.346;2022-09-03T21:45:43;4.55;;;2.55;;
25913;SDS011;13718;50.922;5.346;2022-09-03T21:48:20;7.35;;;2.92;;
25913;SDS011;13718;50.922;5.346;2022-09-03T21:50:56;4.10;;;2.67;;
25913;SDS011;13718;50.922;5.346;2022-09-03T22:04:49;4.38;;;2.70;;